createdAt,value
2017-05-26T00:00:05.797Z,0
2017-05-26T00:01:06.419Z,0
2017-05-26T00:02:07.086Z,0
2017-05-26T00:03:07.683Z,0
2017-05-26T00:04:08.290Z,0
2017-05-26T00:05:08.900Z,0
2017-05-26T00:06:09.506Z,0
2017-05-26T00:07:10.114Z,0
2017-05-26T00:08:10.719Z,0
2017-05-26T00:09:11.381Z,0
2017-05-26T00:10:11.990Z,0
2017-05-26T00:11:12.587Z,0
2017-05-26T00:12:13.196Z,0
2017-05-26T00:13:13.796Z,0
2017-05-26T00:14:14.406Z,0
2017-05-26T00:15:15.010Z,0
2017-05-26T00:16:15.640Z,0
2017-05-26T00:17:16.217Z,0
2017-05-26T00:18:16.865Z,0
2017-05-26T00:19:17.462Z,0
2017-05-26T00:20:18.070Z,0
2017-05-26T00:21:18.680Z,0
2017-05-26T00:22:19.290Z,0
2017-05-26T00:23:19.955Z,0
2017-05-26T00:24:20.565Z,0
2017-05-26T00:25:21.180Z,0
2017-05-26T00:26:21.796Z,0
2017-05-26T00:27:22.405Z,0
2017-05-26T00:28:23.016Z,0
2017-05-26T00:29:23.613Z,0
2017-05-26T00:30:24.267Z,0
2017-05-26T00:31:24.821Z,0
2017-05-26T00:32:25.424Z,0
2017-05-26T00:33:26.044Z,0
2017-05-26T00:34:26.658Z,0
2017-05-26T00:35:27.323Z,0
2017-05-26T00:36:27.925Z,0
2017-05-26T00:37:28.539Z,0
2017-05-26T00:38:29.143Z,0
2017-05-26T00:39:29.752Z,0
2017-05-26T00:40:30.412Z,0
2017-05-26T00:41:31.023Z,0
2017-05-26T00:42:31.622Z,0
2017-05-26T00:43:32.228Z,0
2017-05-26T00:44:32.847Z,0
2017-05-26T00:45:33.459Z,0
2017-05-26T00:46:34.068Z,0
2017-05-26T00:47:34.675Z,0
2017-05-26T00:48:35.275Z,0
2017-05-26T00:49:35.875Z,0
2017-05-26T00:50:36.491Z,0
2017-05-26T00:51:37.102Z,0
2017-05-26T00:52:37.717Z,0
2017-05-26T00:53:38.329Z,0
2017-05-26T00:54:38.939Z,0
2017-05-26T00:55:39.547Z,0
2017-05-26T00:56:40.161Z,0
2017-05-26T00:57:40.770Z,0
2017-05-26T00:58:41.370Z,0
2017-05-26T00:59:41.969Z,0
2017-05-26T01:00:42.581Z,0
2017-05-26T01:01:43.237Z,0
2017-05-26T01:02:43.850Z,0
2017-05-26T01:03:44.463Z,0
2017-05-26T01:04:45.066Z,0
2017-05-26T01:05:45.669Z,0
2017-05-26T01:06:46.333Z,0
2017-05-26T01:07:46.945Z,0
2017-05-26T01:08:47.556Z,0
2017-05-26T01:09:48.155Z,0
2017-05-26T01:10:48.765Z,0
2017-05-26T01:11:49.374Z,0
2017-05-26T01:12:50.035Z,0
2017-05-26T01:13:50.640Z,0
2017-05-26T01:14:51.252Z,0
2017-05-26T01:15:51.861Z,0
2017-05-26T01:16:52.473Z,0
2017-05-26T01:17:53.082Z,0
2017-05-26T01:18:53.678Z,0
2017-05-26T01:19:54.282Z,0
2017-05-26T01:20:54.891Z,0
2017-05-26T01:21:55.501Z,0
2017-05-26T01:22:56.114Z,0
2017-05-26T01:23:56.714Z,0
2017-05-26T01:24:57.324Z,0
2017-05-26T01:25:57.935Z,0
2017-05-26T01:26:58.660Z,0
2017-05-26T01:27:59.265Z,0
2017-05-26T01:28:59.881Z,0
2017-05-26T01:30:00.502Z,0
2017-05-26T01:31:01.088Z,0
2017-05-26T01:32:01.702Z,0
2017-05-26T01:33:02.313Z,0
2017-05-26T01:34:02.914Z,0
2017-05-26T01:35:03.511Z,0
2017-05-26T01:36:04.119Z,0
2017-05-26T01:37:04.733Z,0
2017-05-26T01:38:05.330Z,0
2017-05-26T01:39:05.948Z,0
2017-05-26T01:40:06.566Z,0
2017-05-26T01:41:07.179Z,0
2017-05-26T01:42:07.789Z,0
2017-05-26T01:43:08.387Z,0
2017-05-26T01:44:08.999Z,0
2017-05-26T01:45:09.612Z,0
2017-05-26T01:46:10.217Z,0
2017-05-26T01:47:10.874Z,0
2017-05-26T01:48:11.478Z,0
2017-05-26T01:49:12.089Z,0
2017-05-26T01:50:12.705Z,0
2017-05-26T01:51:13.313Z,0
2017-05-26T01:52:13.925Z,0
2017-05-26T01:53:14.538Z,0
2017-05-26T01:54:15.133Z,0
2017-05-26T01:55:15.730Z,0
2017-05-26T01:56:16.328Z,0
2017-05-26T01:57:16.926Z,0
2017-05-26T01:58:17.538Z,0
2017-05-26T01:59:18.136Z,0
2017-05-26T02:00:18.745Z,0
2017-05-26T02:01:19.343Z,0
2017-05-26T02:02:19.952Z,0
2017-05-26T02:03:20.551Z,0
2017-05-26T02:04:21.168Z,0
2017-05-26T02:05:21.780Z,0
2017-05-26T02:06:22.425Z,0
2017-05-26T02:07:23.027Z,0
2017-05-26T02:08:23.631Z,0
2017-05-26T02:09:24.247Z,0
2017-05-26T02:10:24.857Z,0
2017-05-26T02:11:25.517Z,0
2017-05-26T02:12:26.128Z,0
2017-05-26T02:13:26.739Z,0
2017-05-26T02:14:27.341Z,0
2017-05-26T02:15:27.953Z,0
2017-05-26T02:16:28.609Z,0
2017-05-26T02:17:29.216Z,0
2017-05-26T02:18:29.827Z,0
2017-05-26T02:19:30.440Z,0
2017-05-26T02:20:31.056Z,0
2017-05-26T02:21:31.669Z,0
2017-05-26T02:22:32.280Z,0
2017-05-26T02:23:32.893Z,0
2017-05-26T02:24:33.506Z,0
2017-05-26T02:25:34.115Z,0
2017-05-26T02:26:34.714Z,0
2017-05-26T02:27:35.326Z,0
2017-05-26T02:28:35.933Z,0
2017-05-26T02:29:36.589Z,0
2017-05-26T02:30:37.201Z,0
2017-05-26T02:31:37.801Z,0
2017-05-26T02:32:38.404Z,0
2017-05-26T02:33:39.013Z,0
2017-05-26T02:34:39.619Z,0
2017-05-26T02:35:40.222Z,0
2017-05-26T02:36:40.822Z,0
2017-05-26T02:37:41.420Z,0
2017-05-26T02:38:42.019Z,0
2017-05-26T02:39:42.632Z,0
2017-05-26T02:40:43.241Z,0
2017-05-26T02:41:43.839Z,0
2017-05-26T02:42:44.537Z,0
2017-05-26T02:43:45.136Z,0
2017-05-26T02:44:45.745Z,0
2017-05-26T02:45:46.341Z,4
2017-05-26T02:46:46.937Z,4
2017-05-26T02:47:47.545Z,0
2017-05-26T02:48:48.146Z,0
2017-05-26T02:49:48.742Z,4
2017-05-26T02:50:49.349Z,4
2017-05-26T02:51:49.953Z,4
2017-05-26T02:52:50.549Z,4
2017-05-26T02:53:51.157Z,4
2017-05-26T02:54:51.758Z,4
2017-05-26T02:55:52.358Z,8
2017-05-26T02:56:52.966Z,8
2017-05-26T02:57:53.580Z,12
2017-05-26T02:58:54.179Z,12
2017-05-26T02:59:54.790Z,12
2017-05-26T03:00:55.401Z,16
2017-05-26T03:01:56.015Z,20
2017-05-26T03:02:56.624Z,20
2017-05-26T03:03:57.221Z,24
2017-05-26T03:04:57.817Z,28
2017-05-26T03:05:58.416Z,32
2017-05-26T03:06:59.017Z,32
2017-05-26T03:07:59.627Z,40
2017-05-26T03:09:00.228Z,48
2017-05-26T03:10:00.841Z,52
2017-05-26T03:11:01.456Z,60
2017-05-26T03:12:02.066Z,68
2017-05-26T03:13:02.663Z,76
2017-05-26T03:14:03.265Z,88
2017-05-26T03:15:03.877Z,100
2017-05-26T03:16:04.478Z,108
2017-05-26T03:17:05.084Z,120
2017-05-26T03:18:05.697Z,136
2017-05-26T03:19:06.310Z,156
2017-05-26T03:20:06.976Z,172
2017-05-26T03:21:07.586Z,188
2017-05-26T03:22:08.184Z,212
2017-05-26T03:23:08.787Z,228
2017-05-26T03:24:09.401Z,256
2017-05-26T03:25:10.013Z,280
2017-05-26T03:26:10.616Z,308
2017-05-26T03:27:11.221Z,336
2017-05-26T03:28:11.836Z,364
2017-05-26T03:29:12.447Z,396
2017-05-26T03:30:13.062Z,432
2017-05-26T03:31:13.673Z,464
2017-05-26T03:32:14.289Z,500
2017-05-26T03:33:14.908Z,540
2017-05-26T03:34:15.525Z,580
2017-05-26T03:35:16.146Z,624
2017-05-26T03:36:16.754Z,668
2017-05-26T03:37:17.365Z,716
2017-05-26T03:38:17.965Z,760
2017-05-26T03:39:18.580Z,812
2017-05-26T03:40:19.193Z,864
2017-05-26T03:41:19.801Z,916
2017-05-26T03:42:20.401Z,972
2017-05-26T03:43:21.013Z,1028
2017-05-26T03:44:21.617Z,1084
2017-05-26T03:45:22.220Z,1140
2017-05-26T03:46:22.824Z,1200
2017-05-26T03:47:23.441Z,1264
2017-05-26T03:48:24.058Z,1324
2017-05-26T03:49:24.658Z,1388
2017-05-26T03:50:25.263Z,1452
2017-05-26T03:51:25.866Z,1516
2017-05-26T03:52:26.478Z,1584
2017-05-26T03:53:27.078Z,1644
2017-05-26T03:54:27.685Z,1708
2017-05-26T03:55:28.293Z,1776
2017-05-26T03:56:28.907Z,1840
2017-05-26T03:57:29.523Z,1912
2017-05-26T03:58:30.143Z,1980
2017-05-26T03:59:30.754Z,2044
2017-05-26T04:00:31.359Z,2108
2017-05-26T04:01:31.960Z,2172
2017-05-26T04:02:32.571Z,2240
2017-05-26T04:03:33.175Z,2308
2017-05-26T04:04:33.795Z,2380
2017-05-26T04:05:34.414Z,2452
2017-05-26T04:06:35.017Z,2516
2017-05-26T04:07:35.619Z,2568
2017-05-26T04:08:36.235Z,2632
2017-05-26T04:09:36.860Z,2704
2017-05-26T04:10:37.474Z,2780
2017-05-26T04:11:38.092Z,2844
2017-05-26T04:12:38.710Z,2912
2017-05-26T04:13:39.312Z,2980
2017-05-26T04:14:39.915Z,3048
2017-05-26T04:15:40.529Z,3120
2017-05-26T04:16:41.134Z,3196
2017-05-26T04:17:41.750Z,3268
2017-05-26T04:18:42.363Z,3340
2017-05-26T04:19:42.966Z,3420
2017-05-26T04:20:43.581Z,3496
2017-05-26T04:21:44.180Z,3560
2017-05-26T04:22:44.795Z,3620
2017-05-26T04:23:45.411Z,3692
2017-05-26T04:24:46.030Z,3776
2017-05-26T04:25:46.845Z,3844
2017-05-26T04:26:47.459Z,3892
2017-05-26T04:27:48.075Z,3976
2017-05-26T04:28:48.677Z,4056
2017-05-26T04:29:49.292Z,4116
2017-05-26T04:30:49.908Z,4172
2017-05-26T04:31:50.524Z,4220
2017-05-26T04:32:51.133Z,4284
2017-05-26T04:33:51.753Z,4336
2017-05-26T04:34:52.373Z,4404
2017-05-26T04:35:52.991Z,4452
2017-05-26T04:36:53.605Z,4504
2017-05-26T04:37:54.223Z,4556
2017-05-26T04:38:54.840Z,4620
2017-05-26T04:39:55.458Z,4680
2017-05-26T04:40:56.076Z,4772
2017-05-26T04:41:56.677Z,4848
2017-05-26T04:42:57.295Z,4944
2017-05-26T04:43:57.914Z,5072
2017-05-26T04:44:58.528Z,6060
2017-05-26T04:45:59.174Z,7572
2017-05-26T04:46:59.753Z,8640
2017-05-26T04:48:00.366Z,9172
2017-05-26T04:49:00.971Z,9156
2017-05-26T04:50:01.601Z,8844
2017-05-26T04:51:02.222Z,8908
2017-05-26T04:52:02.848Z,8904
2017-05-26T04:53:03.467Z,7540
2017-05-26T04:54:04.105Z,7212
2017-05-26T04:55:04.729Z,9168
2017-05-26T04:56:05.367Z,10392
2017-05-26T04:57:05.992Z,10580
2017-05-26T04:58:06.617Z,10868
2017-05-26T04:59:07.234Z,11068
2017-05-26T05:00:07.867Z,11032
2017-05-26T05:01:08.473Z,10844
2017-05-26T05:02:09.087Z,10920
2017-05-26T05:03:09.712Z,11576
2017-05-26T05:04:10.335Z,12372
2017-05-26T05:05:10.951Z,12752
2017-05-26T05:06:11.575Z,12768
2017-05-26T05:07:12.200Z,12884
2017-05-26T05:08:12.828Z,12880
2017-05-26T05:09:13.447Z,12932
2017-05-26T05:10:14.074Z,10924
2017-05-26T05:11:14.699Z,8840
2017-05-26T05:12:15.323Z,7632
2017-05-26T05:13:15.937Z,7272
2017-05-26T05:14:16.571Z,10132
2017-05-26T05:15:17.200Z,13756
2017-05-26T05:16:17.815Z,15564
2017-05-26T05:17:18.427Z,15612
2017-05-26T05:18:19.052Z,15208
2017-05-26T05:19:19.678Z,14972
2017-05-26T05:20:20.355Z,15424
2017-05-26T05:21:20.991Z,16124
2017-05-26T05:22:21.621Z,16560
2017-05-26T05:23:22.248Z,16844
2017-05-26T05:24:22.961Z,15936
2017-05-26T05:25:23.544Z,12164
2017-05-26T05:26:24.183Z,8412
2017-05-26T05:27:24.817Z,8884
2017-05-26T05:28:25.448Z,13696
2017-05-26T05:29:26.084Z,18400
2017-05-26T05:30:26.714Z,19200
2017-05-26T05:31:27.345Z,18656
2017-05-26T05:32:27.961Z,18336
2017-05-26T05:33:28.576Z,18752
2017-05-26T05:34:29.201Z,19584
2017-05-26T05:35:29.829Z,20672
2017-05-26T05:36:30.459Z,22048
2017-05-26T05:37:31.088Z,23040
2017-05-26T05:38:31.724Z,23136
2017-05-26T05:39:32.341Z,22496
2017-05-26T05:40:32.970Z,21920
2017-05-26T05:41:33.586Z,21792
2017-05-26T05:42:34.214Z,21888
2017-05-26T05:43:34.845Z,22240
2017-05-26T05:44:35.466Z,23360
2017-05-26T05:45:36.097Z,24192
2017-05-26T05:46:36.718Z,24096
2017-05-26T05:47:37.336Z,23392
2017-05-26T05:48:37.970Z,23264
2017-05-26T05:49:38.610Z,24512
2017-05-26T05:50:39.226Z,27008
2017-05-26T05:51:39.846Z,28416
2017-05-26T05:52:40.523Z,27904
2017-05-26T05:53:41.093Z,26208
2017-05-26T05:54:41.722Z,25536
2017-05-26T05:55:42.354Z,26048
2017-05-26T05:56:42.988Z,27328
2017-05-26T05:57:43.619Z,27872
2017-05-26T05:58:44.239Z,27680
2017-05-26T05:59:44.864Z,27456
2017-05-26T06:00:45.483Z,27648
2017-05-26T06:01:46.120Z,28512
2017-05-26T06:02:46.749Z,29184
2017-05-26T06:03:47.388Z,29856
2017-05-26T06:04:48.020Z,30496
2017-05-26T06:05:48.652Z,30400
2017-05-26T06:06:49.276Z,30048
2017-05-26T06:07:49.913Z,30816
2017-05-26T06:08:50.549Z,30304
2017-05-26T06:09:51.185Z,21920
2017-05-26T06:10:51.858Z,16176
2017-05-26T06:11:52.509Z,24160
2017-05-26T06:12:53.105Z,32864
2017-05-26T06:13:53.736Z,32800
2017-05-26T06:14:54.367Z,32064
2017-05-26T06:15:55.071Z,32608
2017-05-26T06:16:55.686Z,34848
2017-05-26T06:17:56.319Z,36896
2017-05-26T06:18:56.953Z,39104
2017-05-26T06:19:57.574Z,39136
2017-05-26T06:20:58.206Z,38080
2017-05-26T06:21:58.839Z,37920
2017-05-26T06:22:59.458Z,39712
2017-05-26T06:24:00.080Z,42016
2017-05-26T06:25:00.718Z,44864
2017-05-26T06:26:01.358Z,45344
2017-05-26T06:27:01.977Z,42784
2017-05-26T06:28:02.612Z,38656
2017-05-26T06:29:03.232Z,35616
2017-05-26T06:30:03.879Z,34368
2017-05-26T06:31:04.517Z,36000
2017-05-26T06:32:05.151Z,39904
2017-05-26T06:33:05.776Z,43456
2017-05-26T06:34:06.413Z,43136
2017-05-26T06:35:07.035Z,40960
2017-05-26T06:36:07.654Z,39008
2017-05-26T06:37:08.278Z,38432
2017-05-26T06:38:08.916Z,39776
2017-05-26T06:39:09.550Z,41216
2017-05-26T06:40:10.178Z,42144
2017-05-26T06:41:10.799Z,41696
2017-05-26T06:42:11.422Z,40576
2017-05-26T06:43:12.053Z,39360
2017-05-26T06:44:12.677Z,39072
2017-05-26T06:45:13.313Z,40032
2017-05-26T06:46:13.947Z,40640
2017-05-26T06:47:14.579Z,40480
2017-05-26T06:48:15.198Z,40896
2017-05-26T06:49:15.830Z,41248
2017-05-26T06:50:16.451Z,43584
2017-05-26T06:51:17.072Z,48000
2017-05-26T06:52:17.735Z,52992
2017-05-26T06:53:18.334Z,55392
2017-05-26T06:54:18.966Z,54528
2017-05-26T06:55:19.596Z,51104
2017-05-26T06:56:20.221Z,46848
2017-05-26T06:57:20.851Z,44096
2017-05-26T06:58:21.476Z,43136
2017-05-26T06:59:22.097Z,45056
2017-05-26T07:00:22.731Z,47616
2017-05-26T07:01:23.351Z,49184
2017-05-26T07:02:23.971Z,48320
2017-05-26T07:03:24.592Z,45088
2017-05-26T07:04:25.228Z,42944
2017-05-26T07:05:25.843Z,41376
2017-05-26T07:06:26.465Z,40480
2017-05-26T07:07:27.087Z,40960
2017-05-26T07:08:27.708Z,41792
2017-05-26T07:09:28.328Z,41760
2017-05-26T07:10:28.963Z,40736
2017-05-26T07:11:29.633Z,39936
2017-05-26T07:12:30.267Z,40576
2017-05-26T07:13:30.903Z,42784
2017-05-26T07:14:31.530Z,46400
2017-05-26T07:15:32.152Z,51648
2017-05-26T07:16:32.788Z,56704
2017-05-26T07:17:33.407Z,59136
2017-05-26T07:18:34.027Z,58976
2017-05-26T07:19:34.655Z,58016
2017-05-26T07:20:35.282Z,57312
2017-05-26T07:21:35.911Z,57888
2017-05-26T07:22:36.534Z,58400
2017-05-26T07:23:37.151Z,58208
2017-05-26T07:24:37.783Z,57216
2017-05-26T07:25:38.403Z,57696
2017-05-26T07:26:39.025Z,59584
2017-05-26T07:27:39.658Z,63616
2017-05-26T07:28:40.297Z,67840
2017-05-26T07:29:40.913Z,69184
2017-05-26T07:30:41.533Z,67904
2017-05-26T07:31:42.165Z,67104
2017-05-26T07:32:42.798Z,66080
2017-05-26T07:33:43.427Z,65664
2017-05-26T07:34:44.058Z,65024
2017-05-26T07:35:44.715Z,64992
2017-05-26T07:36:45.370Z,67040
2017-05-26T07:37:46.009Z,70688
2017-05-26T07:38:46.632Z,74432
2017-05-26T07:39:47.264Z,76512
2017-05-26T07:40:47.899Z,76544
2017-05-26T07:41:48.536Z,74752
2017-05-26T07:42:49.162Z,72032
2017-05-26T07:43:49.788Z,70240
2017-05-26T07:44:50.420Z,69408
2017-05-26T07:45:51.058Z,70656
2017-05-26T07:46:51.691Z,71200
2017-05-26T07:47:52.315Z,70240
2017-05-26T07:48:52.953Z,67840
2017-05-26T07:49:53.587Z,65344
2017-05-26T07:50:54.225Z,64320
2017-05-26T07:51:54.849Z,64864
2017-05-26T07:52:55.488Z,67776
2017-05-26T07:53:56.132Z,72672
2017-05-26T07:54:56.760Z,77472
2017-05-26T07:55:57.378Z,79552
2017-05-26T07:56:58.009Z,78624
2017-05-26T07:57:58.692Z,77824
2017-05-26T07:58:59.325Z,76736
2017-05-26T07:59:59.954Z,76704
2017-05-26T08:01:00.580Z,78272
2017-05-26T08:02:01.213Z,81632
2017-05-26T08:03:01.834Z,85952
2017-05-26T08:04:02.466Z,88032
2017-05-26T08:05:03.085Z,88960
2017-05-26T08:06:03.707Z,87520
2017-05-26T08:07:04.346Z,85888
2017-05-26T08:08:04.977Z,85568
2017-05-26T08:09:05.598Z,85824
2017-05-26T08:10:06.229Z,88224
2017-05-26T08:11:06.860Z,89856
2017-05-26T08:12:07.540Z,77376
2017-05-26T08:13:08.172Z,86624
2017-05-26T08:14:08.803Z,86656
2017-05-26T08:15:09.433Z,86592
2017-05-26T08:16:10.061Z,88544
2017-05-26T08:17:10.680Z,88800
2017-05-26T08:18:11.299Z,88896
2017-05-26T08:19:11.929Z,87936
2017-05-26T08:20:12.559Z,90112
2017-05-26T08:21:13.183Z,90976
2017-05-26T08:22:13.818Z,89856
2017-05-26T08:23:14.446Z,90080
2017-05-26T08:24:15.074Z,91040
2017-05-26T08:25:15.713Z,92096
2017-05-26T08:26:16.345Z,93120
2017-05-26T08:27:16.977Z,91776
2017-05-26T08:28:17.600Z,89984
2017-05-26T08:29:18.234Z,90112
2017-05-26T08:30:18.866Z,90720
2017-05-26T08:31:19.501Z,90752
2017-05-26T08:32:20.131Z,90016
2017-05-26T08:33:20.752Z,88800
2017-05-26T08:34:21.375Z,85984
2017-05-26T08:35:22.007Z,83520
2017-05-26T08:36:22.640Z,83552
2017-05-26T08:37:23.273Z,86336
2017-05-26T08:38:23.893Z,90464
2017-05-26T08:39:24.521Z,92896
2017-05-26T08:40:25.138Z,91744
2017-05-26T08:41:25.766Z,88000
2017-05-26T08:42:26.388Z,84928
2017-05-26T08:43:27.023Z,85728
2017-05-26T08:44:27.655Z,89216
2017-05-26T08:45:28.288Z,92800
2017-05-26T08:46:28.909Z,96544
2017-05-26T08:47:29.542Z,97600
2017-05-26T08:48:30.163Z,95552
2017-05-26T08:49:30.793Z,93376
2017-05-26T08:50:31.435Z,92832
2017-05-26T08:51:32.054Z,94016
2017-05-26T08:52:32.683Z,92672
2017-05-26T08:53:33.305Z,94752
2017-05-26T08:54:33.940Z,93824
2017-05-26T08:55:34.628Z,91744
2017-05-26T08:56:35.263Z,91296
2017-05-26T08:57:35.884Z,95552
2017-05-26T08:58:36.518Z,103232
2017-05-26T08:59:37.149Z,108672
2017-05-26T09:00:37.778Z,109984
2017-05-26T09:01:38.408Z,107712
2017-05-26T09:02:39.032Z,101824
2017-05-26T09:03:39.666Z,98752
2017-05-26T09:04:40.294Z,102144
2017-05-26T09:05:40.925Z,107360
2017-05-26T09:06:41.550Z,108064
2017-05-26T09:07:42.182Z,104608
2017-05-26T09:08:42.812Z,96224
2017-05-26T09:09:43.439Z,88032
2017-05-26T09:10:44.074Z,82816
2017-05-26T09:11:44.711Z,80256
2017-05-26T09:12:45.347Z,80960
2017-05-26T09:13:45.984Z,84576
2017-05-26T09:14:46.614Z,90752
2017-05-26T09:15:47.245Z,95328
2017-05-26T09:16:47.873Z,94112
2017-05-26T09:17:48.550Z,93760
2017-05-26T09:18:49.179Z,92384
2017-05-26T09:19:49.811Z,90976
2017-05-26T09:20:50.463Z,91840
2017-05-26T09:21:51.089Z,91680
2017-05-26T09:22:51.732Z,90112
2017-05-26T09:23:52.365Z,90592
2017-05-26T09:24:53.002Z,94752
2017-05-26T09:25:53.620Z,99392
2017-05-26T09:26:54.239Z,102144
2017-05-26T09:27:54.860Z,101504
2017-05-26T09:28:55.489Z,96608
2017-05-26T09:29:56.128Z,92128
2017-05-26T09:30:56.785Z,89984
2017-05-26T09:31:57.372Z,89472
2017-05-26T09:32:58.009Z,91520
2017-05-26T09:33:58.630Z,94912
2017-05-26T09:34:59.253Z,97952
2017-05-26T09:35:59.890Z,99296
2017-05-26T09:37:00.507Z,97824
2017-05-26T09:38:01.140Z,94944
2017-05-26T09:39:01.820Z,93376
2017-05-26T09:40:02.444Z,93408
2017-05-26T09:41:03.079Z,92736
2017-05-26T09:42:03.712Z,94304
2017-05-26T09:43:04.341Z,97312
2017-05-26T09:44:04.970Z,99552
2017-05-26T09:45:05.597Z,99744
2017-05-26T09:46:06.228Z,98208
2017-05-26T09:47:06.847Z,98176
2017-05-26T09:48:07.494Z,99424
2017-05-26T09:49:08.149Z,100960
2017-05-26T09:50:08.771Z,98976
2017-05-26T09:51:09.392Z,94976
2017-05-26T09:52:10.026Z,91776
2017-05-26T09:53:10.653Z,92512
2017-05-26T09:54:11.282Z,96128
2017-05-26T09:55:11.907Z,101184
2017-05-26T09:56:12.543Z,106976
2017-05-26T09:57:13.179Z,109792
2017-05-26T09:58:13.863Z,109152
2017-05-26T09:59:14.437Z,107168
2017-05-26T10:00:15.069Z,106912
2017-05-26T10:01:15.689Z,106656
2017-05-26T10:02:16.325Z,109920
2017-05-26T10:03:16.954Z,114688
2017-05-26T10:04:17.587Z,119520
2017-05-26T10:05:18.222Z,119776
2017-05-26T10:06:18.844Z,117312
2017-05-26T10:07:19.466Z,113152
2017-05-26T10:08:20.089Z,112064
2017-05-26T10:09:20.711Z,114816
2017-05-26T10:10:21.334Z,119776
2017-05-26T10:11:21.970Z,124096
2017-05-26T10:12:22.601Z,124800
2017-05-26T10:13:23.237Z,121664
2017-05-26T10:14:23.872Z,117760
2017-05-26T10:15:24.509Z,116256
2017-05-26T10:16:25.143Z,114528
2017-05-26T10:17:25.783Z,115136
2017-05-26T10:18:26.401Z,115648
2017-05-26T10:19:27.022Z,117952
2017-05-26T10:20:27.640Z,119200
2017-05-26T10:21:28.276Z,119200
2017-05-26T10:22:28.896Z,117184
2017-05-26T10:23:29.517Z,113440
2017-05-26T10:24:30.145Z,109216
2017-05-26T10:25:30.779Z,106944
2017-05-26T10:26:31.410Z,106688
2017-05-26T10:27:32.041Z,109376
2017-05-26T10:28:32.674Z,113216
2017-05-26T10:29:33.294Z,117248
2017-05-26T10:30:33.933Z,119424
2017-05-26T10:31:34.566Z,118112
2017-05-26T10:32:35.185Z,116864
2017-05-26T10:33:35.808Z,117664
2017-05-26T10:34:36.432Z,118304
2017-05-26T10:35:37.072Z,117728
2017-05-26T10:36:37.692Z,118880
2017-05-26T10:37:38.320Z,119616
2017-05-26T10:38:38.949Z,120160
2017-05-26T10:39:39.583Z,119488
2017-05-26T10:40:40.201Z,119136
2017-05-26T10:41:40.830Z,118848
2017-05-26T10:42:41.460Z,116288
2017-05-26T10:43:42.103Z,116288
2017-05-26T10:44:42.737Z,117952
2017-05-26T10:45:43.370Z,121184
2017-05-26T10:46:44.007Z,124992
2017-05-26T10:47:44.636Z,127680
2017-05-26T10:48:45.260Z,130336
2017-05-26T10:49:45.889Z,128992
2017-05-26T10:50:46.516Z,127040
2017-05-26T10:51:47.159Z,124000
2017-05-26T10:52:47.774Z,121504
2017-05-26T10:53:48.393Z,122592
2017-05-26T10:54:49.011Z,123744
2017-05-26T10:55:49.635Z,123680
2017-05-26T10:56:50.270Z,122880
2017-05-26T10:57:50.953Z,117568
2017-05-26T10:58:51.587Z,114432
2017-05-26T10:59:52.209Z,114496
2017-05-26T11:00:52.834Z,117248
2017-05-26T11:01:53.466Z,119168
2017-05-26T11:02:54.094Z,121120
2017-05-26T11:03:54.722Z,120032
2017-05-26T11:04:55.345Z,117024
2017-05-26T11:05:55.978Z,111904
2017-05-26T11:06:56.608Z,110048
2017-05-26T11:07:57.229Z,110048
2017-05-26T11:08:57.844Z,110368
2017-05-26T11:09:58.475Z,110368
2017-05-26T11:10:59.097Z,109984
2017-05-26T11:11:59.727Z,108480
2017-05-26T11:13:00.367Z,107680
2017-05-26T11:14:00.998Z,109280
2017-05-26T11:15:01.618Z,112672
2017-05-26T11:16:02.254Z,116256
2017-05-26T11:17:02.889Z,116288
2017-05-26T11:18:03.563Z,114240
2017-05-26T11:19:04.198Z,111744
2017-05-26T11:20:04.820Z,110304
2017-05-26T11:21:05.437Z,114464
2017-05-26T11:22:06.057Z,120896
2017-05-26T11:23:06.693Z,125376
2017-05-26T11:24:07.326Z,123936
2017-05-26T11:25:07.948Z,116288
2017-05-26T11:26:08.582Z,108064
2017-05-26T11:27:09.210Z,105984
2017-05-26T11:28:09.834Z,110528
2017-05-26T11:29:10.467Z,119072
2017-05-26T11:30:11.099Z,129376
2017-05-26T11:31:11.731Z,134720
2017-05-26T11:32:12.368Z,131712
2017-05-26T11:33:12.993Z,127488
2017-05-26T11:34:13.629Z,123584
2017-05-26T11:35:14.288Z,124640
2017-05-26T11:36:14.914Z,128704
2017-05-26T11:37:15.548Z,134304
2017-05-26T11:38:16.187Z,134912
2017-05-26T11:39:16.809Z,132384
2017-05-26T11:40:17.426Z,129984
2017-05-26T11:41:18.050Z,128256
2017-05-26T11:42:18.681Z,127616
2017-05-26T11:43:19.318Z,129728
2017-05-26T11:44:19.948Z,131200
2017-05-26T11:45:20.588Z,129888
2017-05-26T11:46:21.225Z,127712
2017-05-26T11:47:21.852Z,125056
2017-05-26T11:48:22.482Z,120896
2017-05-26T11:49:23.099Z,120384
2017-05-26T11:50:23.731Z,122208
2017-05-26T11:51:24.361Z,124160
2017-05-26T11:52:24.992Z,125376
2017-05-26T11:53:25.611Z,125280
2017-05-26T11:54:26.241Z,123040
2017-05-26T11:55:26.874Z,117152
2017-05-26T11:56:27.512Z,113760
2017-05-26T11:57:28.128Z,109472
2017-05-26T11:58:28.752Z,109792
2017-05-26T11:59:29.391Z,112160
2017-05-26T12:00:30.024Z,113984
2017-05-26T12:01:30.646Z,113632
2017-05-26T12:02:31.280Z,115136
2017-05-26T12:03:31.913Z,113472
2017-05-26T12:04:32.550Z,113344
2017-05-26T12:05:33.166Z,114080
2017-05-26T12:06:33.799Z,116320
2017-05-26T12:07:34.433Z,120896
2017-05-26T12:08:35.048Z,124224
2017-05-26T12:09:35.687Z,123840
2017-05-26T12:10:36.319Z,121440
2017-05-26T12:11:36.944Z,119232
2017-05-26T12:12:37.575Z,116928
2017-05-26T12:13:38.197Z,116960
2017-05-26T12:14:38.821Z,118528
2017-05-26T12:15:39.451Z,120352
2017-05-26T12:16:40.088Z,121376
2017-05-26T12:17:40.723Z,122496
2017-05-26T12:18:41.357Z,123616
2017-05-26T12:19:41.988Z,122816
2017-05-26T12:20:42.628Z,121088
2017-05-26T12:21:43.252Z,122624
2017-05-26T12:22:43.888Z,123040
2017-05-26T12:23:44.519Z,121984
2017-05-26T12:24:45.158Z,121024
2017-05-26T12:25:45.793Z,117088
2017-05-26T12:26:46.419Z,110912
2017-05-26T12:27:47.061Z,105280
2017-05-26T12:28:47.680Z,99648
2017-05-26T12:29:48.314Z,95584
2017-05-26T12:30:48.948Z,96416
2017-05-26T12:31:49.589Z,98560
2017-05-26T12:32:50.225Z,101696
2017-05-26T12:33:50.850Z,103712
2017-05-26T12:34:51.479Z,105088
2017-05-26T12:35:52.113Z,105344
2017-05-26T12:36:52.732Z,104608
2017-05-26T12:37:53.365Z,106464
2017-05-26T12:38:54.000Z,107744
2017-05-26T12:39:54.633Z,107968
2017-05-26T12:40:55.269Z,111776
2017-05-26T12:41:55.907Z,115072
2017-05-26T12:42:56.541Z,118688
2017-05-26T12:43:57.173Z,120896
2017-05-26T12:44:57.812Z,121952
2017-05-26T12:45:58.431Z,124384
2017-05-26T12:46:59.056Z,126880
2017-05-26T12:47:59.690Z,129792
2017-05-26T12:49:00.309Z,128288
2017-05-26T12:50:00.941Z,122816
2017-05-26T12:51:01.581Z,119936
2017-05-26T12:52:02.216Z,120736
2017-05-26T12:53:02.851Z,124576
2017-05-26T12:54:03.469Z,126400
2017-05-26T12:55:04.105Z,124544
2017-05-26T12:56:04.740Z,118720
2017-05-26T12:57:05.414Z,111136
2017-05-26T12:58:06.046Z,107232
2017-05-26T12:59:06.679Z,106784
2017-05-26T13:00:07.311Z,105760
2017-05-26T13:01:07.935Z,107680
2017-05-26T13:02:08.568Z,108768
2017-05-26T13:03:09.190Z,107328
2017-05-26T13:04:09.815Z,104512
2017-05-26T13:05:10.451Z,101440
2017-05-26T13:06:11.084Z,101344
2017-05-26T13:07:11.709Z,103456
2017-05-26T13:08:12.327Z,108576
2017-05-26T13:09:12.961Z,114144
2017-05-26T13:10:13.581Z,116896
2017-05-26T13:11:14.210Z,118272
2017-05-26T13:12:14.839Z,116800
2017-05-26T13:13:15.479Z,111776
2017-05-26T13:14:16.111Z,109056
2017-05-26T13:15:16.748Z,107328
2017-05-26T13:16:17.372Z,106016
2017-05-26T13:17:18.011Z,107328
2017-05-26T13:18:18.640Z,111872
2017-05-26T13:19:19.312Z,113120
2017-05-26T13:20:19.946Z,111072
2017-05-26T13:21:20.581Z,107360
2017-05-26T13:22:21.233Z,103072